createdAt,value
2019-02-19T00:01:00.275Z,99.90
2019-02-19T00:03:28.755Z,99.90
2019-02-19T00:05:57.233Z,99.90
2019-02-19T00:08:27.422Z,99.90
2019-02-19T00:10:55.864Z,99.90
2019-02-19T00:13:24.387Z,99.90
2019-02-19T00:15:55.487Z,99.90
2019-02-19T00:18:23.978Z,99.90
2019-02-19T00:20:52.434Z,99.90
2019-02-19T00:23:20.858Z,99.90
2019-02-19T00:25:49.360Z,99.90
2019-02-19T00:28:17.732Z,99.90
2019-02-19T00:30:46.178Z,99.90
2019-02-19T00:33:14.587Z,99.90
2019-02-19T00:35:44.370Z,99.90
2019-02-19T00:38:12.780Z,99.90
2019-02-19T00:40:41.223Z,99.90
2019-02-19T00:43:09.723Z,99.90
2019-02-19T00:45:38.199Z,99.90
2019-02-19T00:48:06.575Z,99.90
2019-02-19T00:50:36.804Z,99.90
2019-02-19T00:53:05.192Z,99.90
2019-02-19T00:55:33.892Z,99.90
2019-02-19T00:58:02.267Z,99.90
2019-02-19T01:00:38.396Z,99.90
2019-02-19T01:03:06.982Z,99.90
2019-02-19T01:05:35.519Z,99.90
2019-02-19T01:08:04.178Z,99.90
2019-02-19T01:10:34.030Z,99.90
2019-02-19T01:13:02.426Z,99.90
2019-02-19T01:15:31.221Z,99.90
2019-02-19T01:17:59.622Z,99.90
2019-02-19T01:20:28.067Z,99.90
2019-02-19T01:22:56.542Z,99.90
2019-02-19T01:25:25.743Z,99.90
2019-02-19T01:27:54.824Z,99.90
2019-02-19T01:30:23.351Z,99.90
2019-02-19T01:32:51.736Z,99.90
2019-02-19T01:35:20.228Z,99.90
2019-02-19T01:37:48.614Z,99.90
2019-02-19T01:40:17.009Z,99.90
2019-02-19T01:42:45.513Z,99.90
2019-02-19T01:45:13.900Z,99.90
2019-02-19T01:47:42.684Z,99.90
2019-02-19T01:50:11.280Z,99.90
2019-02-19T01:52:39.774Z,99.90
2019-02-19T01:55:08.289Z,99.90
2019-02-19T01:57:36.664Z,99.90
2019-02-19T02:00:08.149Z,99.90
2019-02-19T02:02:37.583Z,99.90
2019-02-19T02:05:06.059Z,99.90
2019-02-19T02:07:34.575Z,99.90
2019-02-19T02:10:03.857Z,99.90
2019-02-19T02:12:34.162Z,99.90
2019-02-19T02:15:02.670Z,99.90
2019-02-19T02:17:32.259Z,99.90
2019-02-19T02:20:00.681Z,99.90
2019-02-19T02:22:29.097Z,99.90
2019-02-19T02:24:57.471Z,99.90
2019-02-19T02:27:25.878Z,99.90
2019-02-19T02:29:54.365Z,99.90
2019-02-19T02:32:23.261Z,99.90
2019-02-19T02:34:51.792Z,99.90
2019-02-19T02:37:20.268Z,99.90
2019-02-19T02:39:48.767Z,99.90
2019-02-19T02:42:17.271Z,99.90
2019-02-19T02:44:46.886Z,99.90
2019-02-19T02:47:15.375Z,99.90
2019-02-19T02:49:43.744Z,99.90
2019-02-19T02:52:13.842Z,99.90
2019-02-19T02:54:44.020Z,99.90
2019-02-19T02:57:14.224Z,99.90
2019-02-19T02:59:44.433Z,99.90
2019-02-19T03:02:14.614Z,99.90
2019-02-19T03:04:44.817Z,99.90
2019-02-19T03:07:20.766Z,99.90
2019-02-19T03:09:49.177Z,99.90
2019-02-19T03:12:17.653Z,99.90
2019-02-19T03:14:46.028Z,99.90
2019-02-19T03:17:14.430Z,99.90
2019-02-19T03:19:43.035Z,99.90
2019-02-19T03:22:11.539Z,99.90
2019-02-19T03:24:40.012Z,99.90
2019-02-19T03:27:08.503Z,99.90
2019-02-19T03:29:37.009Z,99.90
2019-02-19T03:32:05.540Z,99.90
2019-02-19T03:34:34.044Z,99.90
2019-02-19T03:37:02.522Z,99.90
2019-02-19T03:39:31.023Z,99.90
2019-02-19T03:41:59.800Z,99.90
2019-02-19T03:44:29.478Z,99.90
2019-02-19T03:46:57.987Z,99.90
2019-02-19T03:49:26.362Z,99.90
2019-02-19T03:51:54.880Z,99.90
2019-02-19T03:54:23.895Z,99.90
2019-02-19T03:56:53.376Z,99.90
2019-02-19T03:59:29.032Z,99.90
2019-02-19T04:01:57.601Z,99.90
2019-02-19T04:04:26.015Z,99.90
2019-02-19T04:06:54.405Z,99.90
2019-02-19T04:09:22.817Z,99.90
2019-02-19T04:11:51.312Z,99.90
2019-02-19T04:14:21.505Z,99.90
2019-02-19T04:16:49.880Z,99.90
2019-02-19T04:19:18.281Z,99.90
2019-02-19T04:21:46.736Z,99.90
2019-02-19T04:24:15.121Z,99.90
2019-02-19T04:26:43.806Z,99.90
2019-02-19T04:29:12.231Z,99.90
2019-02-19T04:31:40.939Z,99.90
2019-02-19T04:34:09.328Z,99.90
2019-02-19T04:36:37.826Z,99.90
2019-02-19T04:39:06.506Z,99.90
2019-02-19T04:41:35.230Z,99.90
2019-02-19T04:44:03.707Z,99.90
2019-02-19T04:46:32.101Z,99.90
2019-02-19T04:49:00.484Z,99.90
2019-02-19T04:51:29.039Z,99.90
2019-02-19T04:53:57.457Z,99.90
2019-02-19T04:56:25.926Z,99.90
2019-02-19T04:58:54.309Z,99.90
2019-02-19T05:01:22.905Z,99.90
2019-02-19T05:03:51.587Z,99.90
2019-02-19T05:06:20.116Z,99.90
2019-02-19T05:08:48.595Z,99.90
2019-02-19T05:11:17.144Z,99.90
2019-02-19T05:13:45.653Z,99.90
2019-02-19T05:16:14.023Z,99.90
2019-02-19T05:18:42.418Z,99.90
2019-02-19T05:21:10.970Z,99.90
2019-02-19T05:23:39.480Z,99.90
2019-02-19T05:26:07.990Z,99.90
2019-02-19T05:28:36.559Z,99.90
2019-02-19T05:31:06.812Z,99.90
2019-02-19T05:33:35.193Z,99.90
2019-02-19T05:36:03.833Z,99.90
2019-02-19T05:38:32.518Z,99.90
2019-02-19T05:41:02.546Z,99.90
2019-02-19T05:43:31.455Z,99.90
2019-02-19T05:45:59.953Z,99.90
2019-02-19T05:48:28.393Z,99.90
2019-02-19T05:50:58.066Z,99.90
2019-02-19T05:53:26.486Z,99.90
2019-02-19T05:55:54.968Z,99.90
2019-02-19T05:58:23.374Z,99.90
2019-02-19T06:00:51.998Z,99.90
2019-02-19T06:03:20.383Z,99.90
2019-02-19T06:05:48.882Z,99.90
2019-02-19T06:08:17.359Z,99.90
2019-02-19T06:10:46.463Z,99.90
2019-02-19T06:13:16.467Z,99.90
2019-02-19T06:15:44.963Z,99.90
2019-02-19T06:18:14.877Z,99.90
2019-02-19T06:20:43.625Z,99.90
2019-02-19T06:23:12.165Z,99.90
2019-02-19T06:25:40.950Z,99.90
2019-02-19T06:28:11.136Z,99.90
2019-02-19T06:30:39.656Z,99.90
2019-02-19T06:33:08.150Z,99.90
2019-02-19T06:35:36.732Z,99.90
2019-02-19T06:38:06.135Z,99.90
2019-02-19T06:40:35.196Z,99.90
2019-02-19T06:43:03.601Z,99.90
2019-02-19T06:45:31.988Z,99.90
2019-02-19T06:48:00.395Z,99.90
2019-02-19T06:50:28.986Z,99.90
2019-02-19T06:52:57.368Z,99.90
2019-02-19T06:55:25.749Z,99.90
2019-02-19T06:57:54.137Z,99.90
2019-02-19T07:00:29.803Z,99.90
2019-02-19T07:03:03.439Z,99.90
2019-02-19T07:05:31.863Z,99.90
2019-02-19T07:08:02.101Z,99.90
2019-02-19T07:10:30.703Z,99.90
2019-02-19T07:13:00.923Z,99.90
2019-02-19T07:15:30.901Z,99.90
2019-02-19T07:17:59.309Z,99.90
2019-02-19T07:20:27.767Z,99.90
2019-02-19T07:22:56.281Z,99.90
2019-02-19T07:25:24.913Z,99.90
2019-02-19T07:27:53.294Z,99.90
2019-02-19T07:30:21.688Z,99.90
2019-02-19T07:32:50.184Z,99.90
2019-02-19T07:35:18.651Z,99.90
2019-02-19T07:37:47.015Z,99.90
2019-02-19T07:40:17.356Z,99.90
2019-02-19T07:42:45.874Z,99.90
2019-02-19T07:45:15.650Z,99.90
2019-02-19T07:47:44.558Z,99.90
2019-02-19T07:50:14.748Z,99.90
2019-02-19T07:52:43.455Z,99.90
2019-02-19T07:55:13.651Z,99.90
2019-02-19T07:57:43.894Z,99.90
2019-02-19T08:00:13.854Z,99.90
2019-02-19T08:02:42.475Z,99.90
2019-02-19T08:05:11.009Z,99.90
2019-02-19T08:07:39.423Z,99.90
2019-02-19T08:10:09.561Z,99.90
2019-02-19T08:12:38.280Z,99.90
2019-02-19T08:15:07.167Z,99.90
2019-02-19T08:17:35.673Z,99.90
2019-02-19T08:20:13.456Z,99.90
2019-02-19T08:22:36.432Z,99.90
2019-02-19T08:25:06.966Z,99.90
2019-02-19T08:27:35.450Z,99.90
2019-02-19T08:30:04.188Z,99.90
2019-02-19T08:32:34.395Z,99.90
2019-02-19T08:35:02.881Z,99.90
2019-02-19T08:37:31.472Z,99.90
2019-02-19T08:39:59.954Z,99.90
2019-02-19T08:42:30.235Z,99.90
2019-02-19T08:44:58.797Z,99.90
2019-02-19T08:47:27.275Z,99.90
2019-02-19T08:49:55.771Z,99.90
2019-02-19T08:52:24.413Z,99.90
2019-02-19T08:54:53.027Z,99.90
2019-02-19T08:57:21.511Z,99.90
2019-02-19T08:59:51.705Z,99.90
2019-02-19T09:02:20.178Z,99.90
2019-02-19T09:04:48.658Z,99.90
2019-02-19T09:07:18.064Z,99.90
2019-02-19T09:09:46.864Z,99.90
2019-02-19T09:12:15.479Z,99.90
2019-02-19T09:14:45.667Z,99.90
2019-02-19T09:17:14.152Z,99.90
2019-02-19T09:19:42.783Z,99.90
2019-02-19T09:22:13.089Z,99.90
2019-02-19T09:24:41.735Z,99.90
2019-02-19T09:27:10.254Z,99.90
2019-02-19T09:29:38.664Z,99.90
2019-02-19T09:32:07.470Z,99.90
2019-02-19T09:34:35.910Z,99.90
2019-02-19T09:37:04.709Z,99.90
2019-02-19T09:39:33.121Z,99.90
2019-02-19T09:42:04.529Z,99.90
2019-02-19T09:44:33.261Z,99.90
2019-02-19T09:47:03.742Z,99.90
2019-02-19T09:49:32.266Z,99.90
2019-02-19T09:52:02.461Z,99.90
2019-02-19T09:54:31.333Z,99.90
2019-02-19T09:56:59.903Z,99.90
2019-02-19T09:59:30.181Z,99.90
2019-02-19T10:01:59.201Z,99.90
2019-02-19T10:04:27.941Z,99.90
2019-02-19T10:06:56.352Z,99.90
2019-02-19T10:09:26.558Z,99.90
2019-02-19T10:11:55.156Z,99.90
2019-02-19T10:14:25.365Z,99.90
2019-02-19T10:16:55.564Z,99.90
2019-02-19T10:19:25.999Z,99.90
2019-02-19T10:21:54.815Z,99.90
2019-02-19T10:24:23.407Z,99.90
2019-02-19T10:26:51.805Z,99.90
2019-02-19T10:29:20.409Z,99.90
2019-02-19T10:31:49.219Z,99.90
2019-02-19T10:34:17.625Z,99.90
2019-02-19T10:36:46.326Z,99.90
2019-02-19T10:39:15.039Z,99.90
2019-02-19T10:41:43.505Z,99.90
2019-02-19T10:44:11.915Z,99.90
2019-02-19T10:46:40.411Z,99.90
2019-02-19T10:49:08.912Z,99.90
2019-02-19T10:51:37.413Z,99.80
2019-02-19T10:54:06.119Z,98.70
2019-02-19T10:56:34.723Z,97.70
2019-02-19T10:59:03.206Z,97.50
2019-02-19T11:01:31.748Z,97.70
2019-02-19T11:04:00.249Z,96.70
2019-02-19T11:06:29.399Z,95.70
2019-02-19T11:08:58.090Z,95.30
2019-02-19T11:11:26.679Z,94.70
2019-02-19T11:13:56.163Z,95.90
2019-02-19T11:16:25.444Z,94.80
2019-02-19T11:18:53.821Z,94.00
2019-02-19T11:21:22.339Z,93.60
2019-02-19T11:23:52.551Z,92.20
2019-02-19T11:26:21.068Z,92.70
2019-02-19T11:28:51.244Z,92.70
2019-02-19T11:31:19.680Z,91.70
2019-02-19T11:33:48.194Z,91.30
2019-02-19T11:36:16.708Z,90.70
2019-02-19T11:38:45.097Z,88.30
2019-02-19T11:41:13.877Z,87.90
2019-02-19T11:43:42.386Z,89.90
2019-02-19T11:46:11.054Z,88.00
2019-02-19T11:48:40.007Z,86.20
2019-02-19T11:51:09.084Z,84.90
2019-02-19T11:53:37.757Z,83.70
2019-02-19T11:56:06.458Z,83.40
2019-02-19T11:58:35.310Z,80.20
2019-02-19T12:01:04.627Z,82.90
2019-02-19T12:03:33.109Z,79.60
2019-02-19T12:06:01.821Z,80.10
2019-02-19T12:08:38.670Z,79.30
2019-02-19T12:11:01.057Z,80.60
2019-02-19T12:13:29.766Z,77.50
2019-02-19T12:15:58.391Z,76.60
2019-02-19T12:18:27.793Z,74.40
2019-02-19T12:20:56.915Z,71.60
2019-02-19T12:23:25.418Z,72.70
2019-02-19T12:25:55.652Z,73.30
2019-02-19T12:28:24.063Z,73.20
2019-02-19T12:30:54.270Z,71.60
2019-02-19T12:33:22.848Z,71.80
2019-02-19T12:35:51.236Z,71.70
2019-02-19T12:38:20.004Z,70.30
2019-02-19T12:40:48.656Z,69.80
2019-02-19T12:43:17.381Z,69.00
2019-02-19T12:45:47.598Z,69.40
2019-02-19T12:48:16.715Z,70.30
2019-02-19T12:50:45.401Z,68.50
2019-02-19T12:53:14.354Z,68.20
2019-02-19T12:55:44.935Z,68.70
2019-02-19T12:58:14.193Z,66.50
2019-02-19T13:00:43.433Z,67.00
2019-02-19T13:03:12.246Z,65.60
2019-02-19T13:05:41.665Z,64.30
2019-02-19T13:08:10.656Z,65.60
2019-02-19T13:10:39.851Z,66.00
2019-02-19T13:13:10.049Z,64.80
2019-02-19T13:15:38.815Z,63.70
2019-02-19T13:18:07.761Z,62.40
2019-02-19T13:20:36.576Z,62.50
2019-02-19T13:23:05.060Z,61.40
2019-02-19T13:25:33.933Z,59.80
2019-02-19T13:28:02.676Z,59.40
2019-02-19T13:30:32.300Z,61.20
2019-02-19T13:33:01.074Z,58.20
2019-02-19T13:35:30.000Z,58.10
2019-02-19T13:37:58.781Z,58.30
2019-02-19T13:40:27.648Z,58.80
2019-02-19T13:42:56.327Z,58.10
2019-02-19T13:45:24.918Z,57.60
2019-02-19T13:47:53.783Z,56.30
2019-02-19T13:50:24.747Z,55.90
2019-02-19T13:53:22.254Z,56.00
2019-02-19T13:55:55.238Z,55.10
2019-02-19T13:58:23.703Z,55.60
2019-02-19T14:00:52.347Z,57.10
2019-02-19T14:03:21.087Z,55.60
2019-02-19T14:05:49.718Z,55.40
2019-02-19T14:08:19.906Z,56.00
2019-02-19T14:10:49.379Z,55.90
2019-02-19T14:13:18.100Z,56.00
2019-02-19T14:15:55.275Z,55.30
2019-02-19T14:18:46.534Z,56.30
2019-02-19T14:21:33.189Z,56.10
2019-02-19T14:24:25.845Z,56.80
2019-02-19T14:27:29.629Z,57.10
2019-02-19T14:30:16.576Z,55.50
2019-02-19T14:33:04.599Z,56.50
2019-02-19T14:35:51.874Z,58.10
2019-02-19T14:38:38.650Z,57.40
2019-02-19T14:41:25.783Z,58.60
2019-02-19T14:44:32.447Z,57.00
2019-02-19T14:47:35.702Z,56.20
2019-02-19T14:50:24.402Z,56.90
2019-02-19T14:53:12.679Z,59.60
2019-02-19T14:56:04.173Z,58.80
2019-02-19T14:59:12.710Z,57.50
2019-02-19T15:02:07.066Z,58.60
2019-02-19T15:05:02.737Z,57.20
2019-02-19T15:07:51.207Z,58.60
2019-02-19T15:10:54.831Z,58.30
2019-02-19T15:13:49.192Z,58.00
2019-02-19T15:16:54.111Z,56.10
2019-02-19T15:19:39.081Z,56.20
2019-02-19T15:22:38.857Z,58.10
2019-02-19T15:25:26.020Z,59.30
2019-02-19T15:28:06.379Z,60.10
2019-02-19T15:30:48.525Z,58.30
2019-02-19T15:33:54.773Z,61.40
2019-02-19T15:36:43.295Z,61.50
2019-02-19T15:39:31.772Z,63.00
2019-02-19T15:42:27.799Z,63.00
2019-02-19T15:45:14.518Z,61.90
2019-02-19T15:48:06.750Z,64.30
2019-02-19T15:51:13.169Z,63.80
2019-02-19T15:54:01.230Z,65.60
2019-02-19T15:56:49.436Z,66.90
2019-02-19T15:59:47.231Z,66.70
2019-02-19T16:02:25.854Z,66.00
2019-02-19T16:05:09.789Z,67.50
2019-02-19T16:07:46.464Z,68.00
2019-02-19T16:10:24.200Z,67.90
2019-02-19T16:13:03.888Z,69.30
2019-02-19T16:15:55.384Z,69.10
2019-02-19T16:18:46.667Z,69.20
2019-02-19T16:21:47.120Z,70.30
2019-02-19T16:24:26.609Z,71.40
2019-02-19T16:27:14.747Z,71.90
2019-02-19T16:30:03.893Z,72.20
2019-02-19T16:32:52.372Z,74.20
2019-02-19T16:35:40.761Z,74.60
2019-02-19T16:38:27.652Z,75.40
2019-02-19T16:41:12.234Z,76.10
2019-02-19T16:44:03.279Z,76.90
2019-02-19T16:46:54.973Z,77.60
2019-02-19T16:49:37.834Z,78.30
2019-02-19T16:52:22.355Z,78.90
2019-02-19T16:55:25.701Z,79.90
2019-02-19T16:58:00.770Z,80.30
2019-02-19T17:00:51.392Z,81.20
2019-02-19T17:03:38.287Z,81.60
2019-02-19T17:06:25.457Z,82.20
2019-02-19T17:09:13.751Z,82.60
2019-02-19T17:12:02.659Z,83.20
2019-02-19T17:14:42.153Z,84.40
2019-02-19T17:17:28.790Z,84.90
2019-02-19T17:20:16.394Z,85.60
2019-02-19T17:22:45.298Z,86.70
2019-02-19T17:25:37.640Z,87.30
2019-02-19T17:28:31.446Z,89.00
2019-02-19T17:31:22.143Z,87.70
2019-02-19T17:34:10.523Z,89.70
2019-02-19T17:36:48.961Z,90.30
2019-02-19T17:39:29.082Z,90.60
2019-02-19T17:42:06.913Z,90.80
2019-02-19T17:44:48.836Z,91.20
2019-02-19T17:47:36.275Z,91.50
2019-02-19T17:50:25.334Z,91.90
2019-02-19T17:53:14.879Z,92.30
2019-02-19T17:56:08.895Z,92.40
2019-02-19T17:58:57.796Z,92.80
2019-02-19T18:01:33.679Z,92.90
2019-02-19T18:04:11.072Z,93.20
2019-02-19T18:06:55.226Z,93.60
2019-02-19T18:09:33.880Z,93.80
2019-02-19T18:12:08.867Z,94.00
2019-02-19T18:14:50.638Z,94.00
2019-02-19T18:17:38.882Z,94.70
2019-02-19T18:20:07.584Z,94.80
2019-02-19T18:22:36.113Z,94.90
2019-02-19T18:25:05.152Z,95.10
2019-02-19T18:27:33.909Z,95.30
2019-02-19T18:30:04.998Z,95.40
2019-02-19T18:32:36.394Z,95.90
2019-02-19T18:35:05.391Z,96.10
2019-02-19T18:37:33.935Z,96.10
2019-02-19T18:40:02.359Z,96.50
2019-02-19T18:42:31.134Z,96.60
2019-02-19T18:44:59.600Z,96.50
2019-02-19T18:47:28.394Z,96.60
2019-02-19T18:49:57.347Z,97.10
2019-02-19T18:52:25.856Z,96.70
2019-02-19T18:54:56.045Z,96.90
2019-02-19T18:57:24.619Z,97.10
2019-02-19T18:59:53.574Z,97.20
2019-02-19T19:02:22.687Z,97.30
2019-02-19T19:04:51.413Z,97.40
2019-02-19T19:07:20.820Z,97.50
2019-02-19T19:09:50.367Z,97.80
2019-02-19T19:12:18.944Z,98.00
2019-02-19T19:14:49.279Z,98.20
2019-02-19T19:17:19.641Z,98.30
2019-02-19T19:19:48.228Z,98.60
2019-02-19T19:22:19.534Z,99.10
2019-02-19T19:24:48.341Z,99.40
2019-02-19T19:27:17.047Z,99.30
2019-02-19T19:29:45.598Z,99.60
2019-02-19T19:32:14.180Z,99.90
2019-02-19T19:34:43.121Z,99.90
2019-02-19T19:37:11.855Z,99.90
2019-02-19T19:39:40.407Z,99.90
2019-02-19T19:42:10.190Z,99.90
2019-02-19T19:44:38.579Z,99.90
2019-02-19T19:47:07.093Z,99.90
2019-02-19T19:49:35.591Z,99.90
2019-02-19T19:52:05.587Z,99.90
2019-02-19T19:54:34.499Z,99.90
2019-02-19T19:57:04.451Z,99.90
2019-02-19T19:59:37.081Z,99.90
2019-02-19T20:02:06.681Z,99.90
2019-02-19T20:04:35.536Z,99.90
2019-02-19T20:07:04.143Z,99.90
2019-02-19T20:09:33.104Z,99.90
2019-02-19T20:12:02.437Z,99.90
2019-02-19T20:14:31.424Z,99.90
2019-02-19T20:17:00.155Z,99.90
2019-02-19T20:19:29.137Z,99.90
2019-02-19T20:21:59.792Z,99.90
2019-02-19T20:24:30.409Z,99.90
2019-02-19T20:26:59.120Z,99.90
2019-02-19T20:29:27.626Z,99.90
2019-02-19T20:31:56.650Z,99.90
2019-02-19T20:34:25.874Z,99.90
2019-02-19T20:36:54.361Z,99.90
2019-02-19T20:39:23.098Z,99.90
2019-02-19T20:41:53.699Z,99.90
2019-02-19T20:44:22.414Z,99.90
2019-02-19T20:46:51.273Z,99.90
2019-02-19T20:49:19.669Z,99.90
2019-02-19T20:51:48.317Z,99.90
2019-02-19T20:54:18.838Z,99.90
2019-02-19T20:56:47.303Z,99.90
2019-02-19T20:59:16.257Z,99.90
2019-02-19T21:01:44.803Z,99.90
2019-02-19T21:04:13.475Z,99.90
2019-02-19T21:06:41.855Z,99.90
2019-02-19T21:09:10.352Z,99.90
2019-02-19T21:11:39.199Z,99.90
2019-02-19T21:14:07.713Z,99.90
2019-02-19T21:16:37.771Z,99.90
2019-02-19T21:19:06.262Z,99.90
2019-02-19T21:21:44.586Z,99.90
2019-02-19T21:24:06.606Z,99.90
2019-02-19T21:26:35.215Z,99.90
2019-02-19T21:29:03.815Z,99.90
2019-02-19T21:31:32.297Z,99.90
2019-02-19T21:34:02.488Z,99.90
2019-02-19T21:36:31.197Z,99.90
2019-02-19T21:39:00.198Z,99.90
2019-02-19T21:41:28.872Z,99.90
2019-02-19T21:43:57.274Z,99.90
2019-02-19T21:46:26.881Z,99.90
2019-02-19T21:48:55.418Z,99.90
2019-02-19T21:51:23.923Z,99.90
2019-02-19T21:53:52.463Z,99.90
2019-02-19T21:56:21.150Z,99.90
2019-02-19T21:58:49.550Z,99.90
2019-02-19T22:01:18.140Z,99.90
2019-02-19T22:03:48.377Z,99.90
2019-02-19T22:06:17.097Z,99.90
2019-02-19T22:08:45.736Z,99.90
2019-02-19T22:11:16.095Z,99.90
2019-02-19T22:13:44.508Z,99.90
2019-02-19T22:16:12.888Z,99.90
2019-02-19T22:18:42.300Z,99.90
2019-02-19T22:21:18.644Z,99.90
2019-02-19T22:23:47.162Z,99.90
2019-02-19T22:26:15.848Z,99.90
2019-02-19T22:28:44.230Z,99.90
2019-02-19T22:31:14.563Z,99.90
2019-02-19T22:33:43.057Z,99.90
2019-02-19T22:36:11.455Z,99.90
2019-02-19T22:38:39.942Z,99.90
2019-02-19T22:41:09.562Z,99.90
2019-02-19T22:43:38.071Z,99.90
2019-02-19T22:46:06.566Z,99.90
2019-02-19T22:48:35.861Z,99.90
2019-02-19T22:51:04.435Z,99.90
2019-02-19T22:53:58.380Z,99.90
2019-02-19T22:56:29.689Z,99.90
2019-02-19T22:58:58.214Z,99.90
2019-02-19T23:01:31.417Z,99.90
2019-02-19T23:04:00.879Z,99.90
2019-02-19T23:06:29.395Z,99.90
2019-02-19T23:08:57.983Z,99.90
2019-02-19T23:11:26.414Z,99.90
2019-02-19T23:13:55.017Z,99.90
2019-02-19T23:16:23.602Z,99.90
2019-02-19T23:18:52.125Z,99.90
2019-02-19T23:21:20.728Z,99.90
2019-02-19T23:23:49.219Z,99.90
2019-02-19T23:26:17.830Z,99.90
2019-02-19T23:28:46.228Z,99.90
2019-02-19T23:31:14.696Z,99.90
2019-02-19T23:33:43.098Z,99.90
2019-02-19T23:36:31.097Z,99.90
2019-02-19T23:38:59.481Z,99.90
2019-02-19T23:41:27.961Z,99.90
2019-02-19T23:43:56.388Z,99.90
2019-02-19T23:46:24.800Z,99.90
2019-02-19T23:48:53.306Z,99.90
2019-02-19T23:51:21.752Z,99.90
2019-02-19T23:53:50.256Z,99.90
2019-02-19T23:56:18.644Z,99.90
2019-02-19T23:58:47.023Z,99.90
